sensor_id;sensor_type;location;lat;lon;timestamp;P1;durP1;ratioP1;P2;durP2;ratioP2
1721;SDS011;858;53.190;8.596;2023-02-01T00:01:21;42.97;;;6.17;;
1721;SDS011;858;53.190;8.596;2023-02-01T00:03:47;17.93;;;6.03;;
1721;SDS011;858;53.190;8.596;2023-02-01T00:06:14;12.97;;;4.40;;
1721;SDS011;858;53.190;8.596;2023-02-01T00:08:40;30.97;;;5.67;;
1721;SDS011;858;53.190;8.596;2023-02-01T00:11:07;23.00;;;6.30;;
1721;SDS011;858;53.190;8.596;2023-02-01T00:13:36;31.13;;;6.73;;
1721;SDS011;858;53.190;8.596;2023-02-01T00:16:05;25.43;;;4.80;;
1721;SDS011;858;53.190;8.596;2023-02-01T00:18:32;23.08;;;6.90;;
1721;SDS011;858;53.190;8.596;2023-02-01T00:20:58;31.33;;;7.05;;
1721;SDS011;858;53.190;8.596;2023-02-01T00:23:25;27.38;;;6.70;;
1721;SDS011;858;53.190;8.596;2023-02-01T00:25:51;30.95;;;6.97;;
1721;SDS011;858;53.190;8.596;2023-02-01T00:28:18;31.27;;;6.50;;
1721;SDS011;858;53.190;8.596;2023-02-01T00:30:44;20.25;;;6.43;;
1721;SDS011;858;53.190;8.596;2023-02-01T00:33:12;29.48;;;6.97;;
1721;SDS011;858;53.190;8.596;2023-02-01T00:35:39;26.27;;;6.53;;
1721;SDS011;858;53.190;8.596;2023-02-01T00:38:05;30.65;;;7.00;;
1721;SDS011;858;53.190;8.596;2023-02-01T00:40:31;31.50;;;7.30;;
1721;SDS011;858;53.190;8.596;2023-02-01T00:42:59;29.67;;;6.03;;
1721;SDS011;858;53.190;8.596;2023-02-01T00:45:26;26.57;;;5.10;;
1721;SDS011;858;53.190;8.596;2023-02-01T00:47:52;25.93;;;5.20;;
1721;SDS011;858;53.190;8.596;2023-02-01T00:50:20;33.97;;;7.23;;
1721;SDS011;858;53.190;8.596;2023-02-01T00:52:46;30.13;;;5.47;;
1721;SDS011;858;53.190;8.596;2023-02-01T00:55:13;24.73;;;5.90;;
1721;SDS011;858;53.190;8.596;2023-02-01T00:57:39;23.27;;;4.73;;
1721;SDS011;858;53.190;8.596;2023-02-01T01:00:06;25.37;;;4.80;;
1721;SDS011;858;53.190;8.596;2023-02-01T01:02:33;24.03;;;5.80;;
1721;SDS011;858;53.190;8.596;2023-02-01T01:05:00;36.03;;;5.53;;
1721;SDS011;858;53.190;8.596;2023-02-01T01:07:28;25.00;;;7.30;;
1721;SDS011;858;53.190;8.596;2023-02-01T01:09:54;19.20;;;6.70;;
1721;SDS011;858;53.190;8.596;2023-02-01T01:12:21;27.60;;;7.53;;
1721;SDS011;858;53.190;8.596;2023-02-01T01:14:47;23.80;;;7.40;;
1721;SDS011;858;53.190;8.596;2023-02-01T01:17:14;38.30;;;6.93;;
1721;SDS011;858;53.190;8.596;2023-02-01T01:19:40;20.20;;;5.23;;
1721;SDS011;858;53.190;8.596;2023-02-01T01:22:06;25.80;;;5.40;;
1721;SDS011;858;53.190;8.596;2023-02-01T01:24:34;19.17;;;4.40;;
1721;SDS011;858;53.190;8.596;2023-02-01T01:27:01;33.53;;;5.73;;
1721;SDS011;858;53.190;8.596;2023-02-01T01:29:27;22.97;;;5.37;;
1721;SDS011;858;53.190;8.596;2023-02-01T01:31:56;28.43;;;5.50;;
1721;SDS011;858;53.190;8.596;2023-02-01T01:34:22;22.90;;;4.83;;
1721;SDS011;858;53.190;8.596;2023-02-01T01:36:50;25.10;;;6.57;;
1721;SDS011;858;53.190;8.596;2023-02-01T01:39:16;31.53;;;6.60;;
1721;SDS011;858;53.190;8.596;2023-02-01T01:41:44;28.03;;;5.70;;
1721;SDS011;858;53.190;8.596;2023-02-01T01:46:52;28.87;;;7.10;;
1721;SDS011;858;53.190;8.596;2023-02-01T01:49:19;25.57;;;4.77;;
1721;SDS011;858;53.190;8.596;2023-02-01T01:51:48;22.57;;;5.40;;
1721;SDS011;858;53.190;8.596;2023-02-01T01:54:16;17.60;;;4.60;;
1721;SDS011;858;53.190;8.596;2023-02-01T01:56:47;20.50;;;4.37;;
1721;SDS011;858;53.190;8.596;2023-02-01T01:59:15;24.17;;;4.50;;
1721;SDS011;858;53.190;8.596;2023-02-01T02:01:41;25.67;;;4.90;;
1721;SDS011;858;53.190;8.596;2023-02-01T02:04:08;19.83;;;4.90;;
1721;SDS011;858;53.190;8.596;2023-02-01T02:06:37;31.73;;;6.13;;
1721;SDS011;858;53.190;8.596;2023-02-01T02:09:04;24.50;;;7.00;;
1721;SDS011;858;53.190;8.596;2023-02-01T02:11:31;28.13;;;5.50;;
1721;SDS011;858;53.190;8.596;2023-02-01T02:13:59;23.33;;;5.67;;
1721;SDS011;858;53.190;8.596;2023-02-01T02:16:47;20.93;;;4.87;;
1721;SDS011;858;53.190;8.596;2023-02-01T02:19:22;30.40;;;5.40;;
1721;SDS011;858;53.190;8.596;2023-02-01T02:21:59;23.50;;;6.20;;
1721;SDS011;858;53.190;8.596;2023-02-01T02:24:38;15.23;;;4.97;;
1721;SDS011;858;53.190;8.596;2023-02-01T02:27:14;22.43;;;5.40;;
1721;SDS011;858;53.190;8.596;2023-02-01T02:30:06;22.20;;;5.60;;
1721;SDS011;858;53.190;8.596;2023-02-01T02:32:52;22.37;;;4.17;;
1721;SDS011;858;53.190;8.596;2023-02-01T02:35:28;19.63;;;5.43;;
1721;SDS011;858;53.190;8.596;2023-02-01T02:37:59;19.60;;;4.37;;
1721;SDS011;858;53.190;8.596;2023-02-01T02:40:27;14.50;;;4.97;;
1721;SDS011;858;53.190;8.596;2023-02-01T02:42:58;24.70;;;4.70;;
1721;SDS011;858;53.190;8.596;2023-02-01T02:45:43;16.27;;;4.23;;
1721;SDS011;858;53.190;8.596;2023-02-01T02:48:29;21.33;;;5.23;;
1721;SDS011;858;53.190;8.596;2023-02-01T02:51:00;22.37;;;6.70;;
1721;SDS011;858;53.190;8.596;2023-02-01T02:53:47;13.80;;;4.80;;
1721;SDS011;858;53.190;8.596;2023-02-01T02:56:32;21.70;;;5.27;;
1721;SDS011;858;53.190;8.596;2023-02-01T02:59:18;17.77;;;3.77;;
1721;SDS011;858;53.190;8.596;2023-02-01T03:02:03;27.40;;;5.80;;
1721;SDS011;858;53.190;8.596;2023-02-01T03:04:51;22.47;;;4.43;;
1721;SDS011;858;53.190;8.596;2023-02-01T03:10:00;20.60;;;4.30;;
1721;SDS011;858;53.190;8.596;2023-02-01T03:12:30;22.53;;;4.80;;
1721;SDS011;858;53.190;8.596;2023-02-01T03:15:17;20.13;;;4.63;;
1721;SDS011;858;53.190;8.596;2023-02-01T03:17:44;17.03;;;5.20;;
1721;SDS011;858;53.190;8.596;2023-02-01T03:20:11;19.80;;;5.27;;
1721;SDS011;858;53.190;8.596;2023-02-01T03:22:39;17.77;;;4.57;;
1721;SDS011;858;53.190;8.596;2023-02-01T03:25:10;11.40;;;4.27;;
1721;SDS011;858;53.190;8.596;2023-02-01T03:27:37;32.27;;;5.27;;
1721;SDS011;858;53.190;8.596;2023-02-01T03:30:09;24.63;;;5.20;;
1721;SDS011;858;53.190;8.596;2023-02-01T03:32:37;14.17;;;4.40;;
1721;SDS011;858;53.190;8.596;2023-02-01T03:35:18;25.70;;;5.00;;
1721;SDS011;858;53.190;8.596;2023-02-01T03:37:47;22.30;;;5.10;;
1721;SDS011;858;53.190;8.596;2023-02-01T03:40:16;16.50;;;4.20;;
1721;SDS011;858;53.190;8.596;2023-02-01T03:42:44;18.87;;;3.87;;
1721;SDS011;858;53.190;8.596;2023-02-01T03:45:13;19.73;;;4.83;;
1721;SDS011;858;53.190;8.596;2023-02-01T03:47:40;19.13;;;4.40;;
1721;SDS011;858;53.190;8.596;2023-02-01T03:50:09;22.70;;;4.20;;
1721;SDS011;858;53.190;8.596;2023-02-01T03:52:37;18.03;;;3.73;;
1721;SDS011;858;53.190;8.596;2023-02-01T03:55:06;21.27;;;4.57;;
1721;SDS011;858;53.190;8.596;2023-02-01T03:57:37;20.90;;;5.53;;
1721;SDS011;858;53.190;8.596;2023-02-01T04:00:06;19.48;;;4.88;;
1721;SDS011;858;53.190;8.596;2023-02-01T04:02:34;18.05;;;5.25;;
1721;SDS011;858;53.190;8.596;2023-02-01T04:05:00;19.60;;;4.22;;
1721;SDS011;858;53.190;8.596;2023-02-01T04:07:27;10.80;;;3.55;;
1721;SDS011;858;53.190;8.596;2023-02-01T04:09:54;8.97;;;3.10;;
1721;SDS011;858;53.190;8.596;2023-02-01T04:12:21;15.10;;;3.90;;
1721;SDS011;858;53.190;8.596;2023-02-01T04:14:49;14.60;;;3.65;;
1721;SDS011;858;53.190;8.596;2023-02-01T04:17:15;12.52;;;3.63;;
1721;SDS011;858;53.190;8.596;2023-02-01T04:19:42;21.45;;;4.80;;
1721;SDS011;858;53.190;8.596;2023-02-01T04:22:08;13.70;;;4.60;;
1721;SDS011;858;53.190;8.596;2023-02-01T04:24:34;14.05;;;4.65;;
1721;SDS011;858;53.190;8.596;2023-02-01T04:27:01;19.00;;;4.90;;
1721;SDS011;858;53.190;8.596;2023-02-01T04:29:28;13.48;;;4.53;;
1721;SDS011;858;53.190;8.596;2023-02-01T04:31:55;21.80;;;5.73;;
1721;SDS011;858;53.190;8.596;2023-02-01T04:34:22;18.27;;;5.20;;
1721;SDS011;858;53.190;8.596;2023-02-01T04:36:49;11.23;;;4.43;;
1721;SDS011;858;53.190;8.596;2023-02-01T04:39:16;17.87;;;4.40;;
1721;SDS011;858;53.190;8.596;2023-02-01T04:41:42;15.63;;;4.50;;
1721;SDS011;858;53.190;8.596;2023-02-01T04:44:10;26.13;;;5.70;;
1721;SDS011;858;53.190;8.596;2023-02-01T04:46:39;19.27;;;5.40;;
1721;SDS011;858;53.190;8.596;2023-02-01T04:49:07;26.23;;;5.50;;
1721;SDS011;858;53.190;8.596;2023-02-01T04:51:34;17.95;;;5.60;;
1721;SDS011;858;53.190;8.596;2023-02-01T04:54:00;25.95;;;6.20;;
1721;SDS011;858;53.190;8.596;2023-02-01T04:56:27;27.52;;;6.78;;
1721;SDS011;858;53.190;8.596;2023-02-01T04:58:53;23.45;;;6.00;;
1721;SDS011;858;53.190;8.596;2023-02-01T05:01:20;28.17;;;6.57;;
1721;SDS011;858;53.190;8.596;2023-02-01T05:03:46;24.65;;;6.22;;
1721;SDS011;858;53.190;8.596;2023-02-01T05:06:14;24.00;;;5.97;;
1721;SDS011;858;53.190;8.596;2023-02-01T05:08:40;23.03;;;6.10;;
1721;SDS011;858;53.190;8.596;2023-02-01T05:11:07;27.45;;;6.93;;
1721;SDS011;858;53.190;8.596;2023-02-01T05:13:54;21.98;;;5.70;;
1721;SDS011;858;53.190;8.596;2023-02-01T05:16:20;25.40;;;6.20;;
1721;SDS011;858;53.190;8.596;2023-02-01T05:18:46;23.15;;;6.20;;
1721;SDS011;858;53.190;8.596;2023-02-01T05:21:12;18.60;;;6.22;;
1721;SDS011;858;53.190;8.596;2023-02-01T05:23:41;21.75;;;6.40;;
1721;SDS011;858;53.190;8.596;2023-02-01T05:26:21;20.50;;;5.80;;
1721;SDS011;858;53.190;8.596;2023-02-01T05:28:47;16.80;;;4.68;;
1721;SDS011;858;53.190;8.596;2023-02-01T05:31:14;15.23;;;4.35;;
1721;SDS011;858;53.190;8.596;2023-02-01T05:33:41;18.15;;;4.82;;
1721;SDS011;858;53.190;8.596;2023-02-01T05:36:07;13.70;;;5.47;;
1721;SDS011;858;53.190;8.596;2023-02-01T05:38:34;17.50;;;5.30;;
1721;SDS011;858;53.190;8.596;2023-02-01T05:41:01;20.13;;;5.07;;
1721;SDS011;858;53.190;8.596;2023-02-01T05:43:28;17.80;;;5.00;;
1721;SDS011;858;53.190;8.596;2023-02-01T05:45:54;13.95;;;4.57;;
1721;SDS011;858;53.190;8.596;2023-02-01T05:48:21;24.38;;;5.25;;
1721;SDS011;858;53.190;8.596;2023-02-01T05:50:47;21.00;;;6.22;;
1721;SDS011;858;53.190;8.596;2023-02-01T05:53:14;18.75;;;5.95;;
1721;SDS011;858;53.190;8.596;2023-02-01T05:55:41;20.67;;;5.80;;
1721;SDS011;858;53.190;8.596;2023-02-01T05:58:10;15.73;;;5.00;;
1721;SDS011;858;53.190;8.596;2023-02-01T06:00:37;15.40;;;5.03;;
1721;SDS011;858;53.190;8.596;2023-02-01T06:03:03;16.40;;;5.38;;
1721;SDS011;858;53.190;8.596;2023-02-01T06:05:30;22.33;;;6.05;;
1721;SDS011;858;53.190;8.596;2023-02-01T06:07:57;21.73;;;6.50;;
1721;SDS011;858;53.190;8.596;2023-02-01T06:10:23;17.70;;;5.60;;
1721;SDS011;858;53.190;8.596;2023-02-01T06:12:50;20.65;;;6.18;;
1721;SDS011;858;53.190;8.596;2023-02-01T06:15:19;16.80;;;5.65;;
1721;SDS011;858;53.190;8.596;2023-02-01T06:17:45;21.85;;;5.93;;
1721;SDS011;858;53.190;8.596;2023-02-01T06:20:13;20.30;;;6.00;;
1721;SDS011;858;53.190;8.596;2023-02-01T06:22:40;20.95;;;6.68;;
1721;SDS011;858;53.190;8.596;2023-02-01T06:25:07;21.05;;;5.55;;
1721;SDS011;858;53.190;8.596;2023-02-01T06:27:34;21.77;;;5.25;;
1721;SDS011;858;53.190;8.596;2023-02-01T06:30:00;21.52;;;5.75;;
1721;SDS011;858;53.190;8.596;2023-02-01T06:32:28;22.17;;;6.37;;
1721;SDS011;858;53.190;8.596;2023-02-01T06:34:55;21.70;;;6.70;;
1721;SDS011;858;53.190;8.596;2023-02-01T06:37:21;27.00;;;6.57;;
1721;SDS011;858;53.190;8.596;2023-02-01T06:39:49;27.60;;;5.60;;
1721;SDS011;858;53.190;8.596;2023-02-01T06:42:16;26.75;;;6.78;;
1721;SDS011;858;53.190;8.596;2023-02-01T06:44:42;25.75;;;6.60;;
1721;SDS011;858;53.190;8.596;2023-02-01T06:47:09;21.77;;;5.80;;
1721;SDS011;858;53.190;8.596;2023-02-01T06:49:38;22.67;;;5.97;;
1721;SDS011;858;53.190;8.596;2023-02-01T06:52:05;28.92;;;6.53;;
1721;SDS011;858;53.190;8.596;2023-02-01T06:54:31;25.67;;;5.82;;
1721;SDS011;858;53.190;8.596;2023-02-01T06:56:59;17.93;;;5.30;;
1721;SDS011;858;53.190;8.596;2023-02-01T06:59:25;20.67;;;4.93;;
1721;SDS011;858;53.190;8.596;2023-02-01T07:01:51;19.08;;;5.00;;
1721;SDS011;858;53.190;8.596;2023-02-01T07:04:19;18.67;;;5.40;;
1721;SDS011;858;53.190;8.596;2023-02-01T07:06:47;12.93;;;4.00;;
1721;SDS011;858;53.190;8.596;2023-02-01T07:09:14;18.70;;;4.90;;
1721;SDS011;858;53.190;8.596;2023-02-01T07:11:41;20.33;;;5.22;;
1721;SDS011;858;53.190;8.596;2023-02-01T07:14:09;14.85;;;4.40;;
1721;SDS011;858;53.190;8.596;2023-02-01T07:16:35;24.17;;;5.72;;
1721;SDS011;858;53.190;8.596;2023-02-01T07:19:02;23.42;;;5.72;;
1721;SDS011;858;53.190;8.596;2023-02-01T07:21:29;17.60;;;5.10;;
1721;SDS011;858;53.190;8.596;2023-02-01T07:23:57;15.20;;;4.40;;
1721;SDS011;858;53.190;8.596;2023-02-01T07:26:23;17.75;;;4.95;;
1721;SDS011;858;53.190;8.596;2023-02-01T07:28:50;23.52;;;5.68;;
1721;SDS011;858;53.190;8.596;2023-02-01T07:31:17;25.08;;;5.85;;
1721;SDS011;858;53.190;8.596;2023-02-01T07:33:45;21.17;;;6.03;;
1721;SDS011;858;53.190;8.596;2023-02-01T07:36:13;21.42;;;6.10;;
1721;SDS011;858;53.190;8.596;2023-02-01T07:38:40;23.77;;;5.75;;
1721;SDS011;858;53.190;8.596;2023-02-01T07:41:08;23.73;;;6.32;;
1721;SDS011;858;53.190;8.596;2023-02-01T07:43:34;24.90;;;5.90;;
1721;SDS011;858;53.190;8.596;2023-02-01T07:46:02;24.25;;;5.93;;
1721;SDS011;858;53.190;8.596;2023-02-01T07:48:29;26.52;;;6.72;;
1721;SDS011;858;53.190;8.596;2023-02-01T07:50:59;28.80;;;6.25;;
1721;SDS011;858;53.190;8.596;2023-02-01T07:53:26;24.73;;;7.15;;
1721;SDS011;858;53.190;8.596;2023-02-01T07:55:56;33.85;;;7.10;;
1721;SDS011;858;53.190;8.596;2023-02-01T07:58:24;28.80;;;6.80;;
1721;SDS011;858;53.190;8.596;2023-02-01T08:00:51;23.50;;;6.03;;
1721;SDS011;858;53.190;8.596;2023-02-01T08:03:35;25.70;;;6.20;;
1721;SDS011;858;53.190;8.596;2023-02-01T08:06:01;26.70;;;5.85;;
1721;SDS011;858;53.190;8.596;2023-02-01T08:08:28;18.75;;;6.07;;
1721;SDS011;858;53.190;8.596;2023-02-01T08:10:56;24.85;;;6.22;;
1721;SDS011;858;53.190;8.596;2023-02-01T08:13:24;20.95;;;5.50;;
1721;SDS011;858;53.190;8.596;2023-02-01T08:15:50;23.15;;;5.40;;
1721;SDS011;858;53.190;8.596;2023-02-01T08:18:17;18.33;;;5.70;;
1721;SDS011;858;53.190;8.596;2023-02-01T08:20:43;23.77;;;6.93;;
1721;SDS011;858;53.190;8.596;2023-02-01T08:23:10;23.30;;;6.40;;
1721;SDS011;858;53.190;8.596;2023-02-01T08:25:37;27.73;;;6.77;;
1721;SDS011;858;53.190;8.596;2023-02-01T08:28:04;27.93;;;7.10;;
1721;SDS011;858;53.190;8.596;2023-02-01T08:30:32;27.80;;;6.33;;
1721;SDS011;858;53.190;8.596;2023-02-01T08:32:58;28.58;;;7.32;;
1721;SDS011;858;53.190;8.596;2023-02-01T08:35:26;22.48;;;5.30;;
1721;SDS011;858;53.190;8.596;2023-02-01T08:37:52;19.70;;;5.88;;
1721;SDS011;858;53.190;8.596;2023-02-01T08:40:19;19.02;;;4.40;;
1721;SDS011;858;53.190;8.596;2023-02-01T08:42:46;23.17;;;5.80;;
1721;SDS011;858;53.190;8.596;2023-02-01T08:45:19;23.95;;;5.38;;
1721;SDS011;858;53.190;8.596;2023-02-01T08:47:47;17.23;;;5.50;;
1721;SDS011;858;53.190;8.596;2023-02-01T08:50:14;15.48;;;4.90;;
1721;SDS011;858;53.190;8.596;2023-02-01T08:52:42;20.40;;;5.50;;
1721;SDS011;858;53.190;8.596;2023-02-01T08:55:09;23.23;;;5.68;;
1721;SDS011;858;53.190;8.596;2023-02-01T08:57:36;22.75;;;6.07;;
1721;SDS011;858;53.190;8.596;2023-02-01T09:00:05;19.15;;;6.45;;
1721;SDS011;858;53.190;8.596;2023-02-01T09:02:32;25.27;;;6.68;;
1721;SDS011;858;53.190;8.596;2023-02-01T09:05:00;26.38;;;6.30;;
1721;SDS011;858;53.190;8.596;2023-02-01T09:07:26;26.45;;;6.43;;
1721;SDS011;858;53.190;8.596;2023-02-01T09:09:52;24.98;;;5.25;;
1721;SDS011;858;53.190;8.596;2023-02-01T09:12:19;23.75;;;6.07;;
1721;SDS011;858;53.190;8.596;2023-02-01T09:14:46;25.23;;;6.60;;
1721;SDS011;858;53.190;8.596;2023-02-01T09:17:12;24.60;;;5.50;;
1721;SDS011;858;53.190;8.596;2023-02-01T09:19:38;22.98;;;6.10;;
1721;SDS011;858;53.190;8.596;2023-02-01T09:22:06;15.85;;;5.30;;
1721;SDS011;858;53.190;8.596;2023-02-01T09:24:33;24.33;;;5.60;;
1721;SDS011;858;53.190;8.596;2023-02-01T09:26:59;22.70;;;5.65;;
1721;SDS011;858;53.190;8.596;2023-02-01T09:29:25;17.85;;;5.38;;
1721;SDS011;858;53.190;8.596;2023-02-01T09:31:52;24.40;;;6.32;;
1721;SDS011;858;53.190;8.596;2023-02-01T09:34:18;22.00;;;5.53;;
1721;SDS011;858;53.190;8.596;2023-02-01T09:36:45;19.20;;;5.50;;
1721;SDS011;858;53.190;8.596;2023-02-01T09:39:12;25.10;;;6.20;;
1721;SDS011;858;53.190;8.596;2023-02-01T09:41:42;21.95;;;5.88;;
1721;SDS011;858;53.190;8.596;2023-02-01T09:44:12;24.58;;;6.60;;
1721;SDS011;858;53.190;8.596;2023-02-01T09:46:43;21.10;;;5.45;;
1721;SDS011;858;53.190;8.596;2023-02-01T09:49:10;23.25;;;5.70;;
1721;SDS011;858;53.190;8.596;2023-02-01T09:51:39;20.08;;;5.30;;
1721;SDS011;858;53.190;8.596;2023-02-01T09:54:11;20.43;;;5.20;;
1721;SDS011;858;53.190;8.596;2023-02-01T09:56:41;16.67;;;5.18;;
1721;SDS011;858;53.190;8.596;2023-02-01T09:59:10;18.70;;;6.40;;
1721;SDS011;858;53.190;8.596;2023-02-01T10:01:41;21.30;;;5.33;;
1721;SDS011;858;53.190;8.596;2023-02-01T10:04:09;24.87;;;6.27;;
1721;SDS011;858;53.190;8.596;2023-02-01T10:06:40;27.17;;;6.10;;
1721;SDS011;858;53.190;8.596;2023-02-01T10:09:15;16.38;;;5.63;;
1721;SDS011;858;53.190;8.596;2023-02-01T10:11:55;17.90;;;4.55;;
1721;SDS011;858;53.190;8.596;2023-02-01T10:14:43;29.08;;;6.18;;
1721;SDS011;858;53.190;8.596;2023-02-01T10:17:17;13.98;;;5.10;;
1721;SDS011;858;53.190;8.596;2023-02-01T10:19:51;21.83;;;5.50;;
1721;SDS011;858;53.190;8.596;2023-02-01T10:22:23;19.98;;;6.22;;
1721;SDS011;858;53.190;8.596;2023-02-01T10:24:57;23.47;;;6.47;;
1721;SDS011;858;53.190;8.596;2023-02-01T10:27:29;11.33;;;4.47;;
1721;SDS011;858;53.190;8.596;2023-02-01T10:29:59;20.77;;;4.87;;
1721;SDS011;858;53.190;8.596;2023-02-01T10:32:29;14.17;;;3.47;;
1721;SDS011;858;53.190;8.596;2023-02-01T10:34:57;17.97;;;4.13;;
1721;SDS011;858;53.190;8.596;2023-02-01T10:37:25;15.90;;;4.77;;
1721;SDS011;858;53.190;8.596;2023-02-01T10:39:53;27.80;;;5.90;;
1721;SDS011;858;53.190;8.596;2023-02-01T10:42:21;20.73;;;4.80;;
1721;SDS011;858;53.190;8.596;2023-02-01T10:44:51;15.93;;;5.20;;
1721;SDS011;858;53.190;8.596;2023-02-01T10:47:18;13.93;;;3.97;;
1721;SDS011;858;53.190;8.596;2023-02-01T10:49:47;20.47;;;5.70;;
1721;SDS011;858;53.190;8.596;2023-02-01T10:52:16;18.80;;;4.53;;
1721;SDS011;858;53.190;8.596;2023-02-01T10:54:43;20.03;;;4.90;;
1721;SDS011;858;53.190;8.596;2023-02-01T10:57:19;21.27;;;4.17;;
1721;SDS011;858;53.190;8.596;2023-02-01T10:59:47;20.97;;;4.80;;
1721;SDS011;858;53.190;8.596;2023-02-01T11:02:19;13.30;;;5.43;;
1721;SDS011;858;53.190;8.596;2023-02-01T11:04:46;15.10;;;4.47;;
1721;SDS011;858;53.190;8.596;2023-02-01T11:07:13;15.80;;;6.37;;
1721;SDS011;858;53.190;8.596;2023-02-01T11:09:42;20.70;;;3.87;;
1721;SDS011;858;53.190;8.596;2023-02-01T11:12:22;13.90;;;3.50;;
1721;SDS011;858;53.190;8.596;2023-02-01T11:14:50;11.33;;;3.63;;
1721;SDS011;858;53.190;8.596;2023-02-01T11:17:20;23.53;;;4.20;;
1721;SDS011;858;53.190;8.596;2023-02-01T11:19:55;9.70;;;3.57;;
1721;SDS011;858;53.190;8.596;2023-02-01T11:22:22;13.80;;;5.90;;
1721;SDS011;858;53.190;8.596;2023-02-01T11:24:50;15.80;;;5.20;;
1721;SDS011;858;53.190;8.596;2023-02-01T11:27:17;10.60;;;4.93;;
1721;SDS011;858;53.190;8.596;2023-02-01T11:29:45;12.50;;;5.20;;
1721;SDS011;858;53.190;8.596;2023-02-01T11:32:14;16.90;;;4.00;;
1721;SDS011;858;53.190;8.596;2023-02-01T11:34:45;22.40;;;5.13;;
1721;SDS011;858;53.190;8.596;2023-02-01T11:37:14;8.27;;;3.77;;
1721;SDS011;858;53.190;8.596;2023-02-01T11:39:43;10.40;;;3.20;;
1721;SDS011;858;53.190;8.596;2023-02-01T11:42:18;6.67;;;2.60;;
1721;SDS011;858;53.190;8.596;2023-02-01T11:44:46;16.50;;;4.43;;
1721;SDS011;858;53.190;8.596;2023-02-01T11:47:20;6.57;;;2.60;;
1721;SDS011;858;53.190;8.596;2023-02-01T11:49:49;7.47;;;2.80;;
1721;SDS011;858;53.190;8.596;2023-02-01T11:52:18;6.57;;;2.40;;
1721;SDS011;858;53.190;8.596;2023-02-01T11:54:58;9.30;;;4.00;;
1721;SDS011;858;53.190;8.596;2023-02-01T11:57:31;13.00;;;3.37;;
1721;SDS011;858;53.190;8.596;2023-02-01T12:00:02;8.17;;;3.20;;
1721;SDS011;858;53.190;8.596;2023-02-01T12:02:38;7.53;;;3.73;;
1721;SDS011;858;53.190;8.596;2023-02-01T12:05:15;8.50;;;3.03;;
1721;SDS011;858;53.190;8.596;2023-02-01T12:07:48;1.33;;;0.70;;
1721;SDS011;858;53.190;8.596;2023-02-01T12:10:20;1.67;;;0.80;;
1721;SDS011;858;53.190;8.596;2023-02-01T12:12:51;5.50;;;0.87;;
1721;SDS011;858;53.190;8.596;2023-02-01T12:15:24;1.43;;;0.90;;
1721;SDS011;858;53.190;8.596;2023-02-01T12:18:08;0.50;;;0.40;;
1721;SDS011;858;53.190;8.596;2023-02-01T12:20:47;1.27;;;0.50;;
1721;SDS011;858;53.190;8.596;2023-02-01T12:23:19;0.40;;;0.30;;
1721;SDS011;858;53.190;8.596;2023-02-01T12:26:01;0.67;;;0.40;;
1721;SDS011;858;53.190;8.596;2023-02-01T12:28:36;0.50;;;0.50;;
1721;SDS011;858;53.190;8.596;2023-02-01T12:31:10;0.40;;;0.40;;
1721;SDS011;858;53.190;8.596;2023-02-01T12:33:43;1.13;;;0.67;;
1721;SDS011;858;53.190;8.596;2023-02-01T12:36:25;1.20;;;0.50;;
1721;SDS011;858;53.190;8.596;2023-02-01T12:38:55;0.80;;;0.80;;
1721;SDS011;858;53.190;8.596;2023-02-01T12:41:32;0.87;;;0.60;;
1721;SDS011;858;53.190;8.596;2023-02-01T12:44:03;1.33;;;1.20;;
1721;SDS011;858;53.190;8.596;2023-02-01T12:46:33;12.43;;;6.80;;
1721;SDS011;858;53.190;8.596;2023-02-01T12:49:00;4.23;;;3.77;;
1721;SDS011;858;53.190;8.596;2023-02-01T12:51:32;4.40;;;4.00;;
1721;SDS011;858;53.190;8.596;2023-02-01T12:54:00;3.13;;;2.33;;
1721;SDS011;858;53.190;8.596;2023-02-01T12:56:30;2.83;;;1.93;;
1721;SDS011;858;53.190;8.596;2023-02-01T12:58:57;5.17;;;3.43;;
1721;SDS011;858;53.190;8.596;2023-02-01T13:01:26;6.07;;;4.20;;
1721;SDS011;858;53.190;8.596;2023-02-01T13:03:55;5.00;;;3.87;;
1721;SDS011;858;53.190;8.596;2023-02-01T13:06:26;3.67;;;2.50;;
1721;SDS011;858;53.190;8.596;2023-02-01T13:09:03;4.30;;;3.33;;
1721;SDS011;858;53.190;8.596;2023-02-01T13:11:31;2.50;;;1.87;;
1721;SDS011;858;53.190;8.596;2023-02-01T13:14:00;4.00;;;2.73;;
1721;SDS011;858;53.190;8.596;2023-02-01T13:16:28;6.23;;;3.40;;
1721;SDS011;858;53.190;8.596;2023-02-01T13:18:59;4.90;;;3.67;;
1721;SDS011;858;53.190;8.596;2023-02-01T13:21:27;7.53;;;2.80;;
1721;SDS011;858;53.190;8.596;2023-02-01T13:23:55;10.97;;;3.87;;
1721;SDS011;858;53.190;8.596;2023-02-01T13:26:23;8.33;;;4.70;;
1721;SDS011;858;53.190;8.596;2023-02-01T13:28:50;6.90;;;3.07;;
1721;SDS011;858;53.190;8.596;2023-02-01T13:36:52;12.80;;;3.70;;
1721;SDS011;858;53.190;8.596;2023-02-01T13:39:31;5.23;;;1.97;;
1721;SDS011;858;53.190;8.596;2023-02-01T13:42:01;3.97;;;2.40;;
1721;SDS011;858;53.190;8.596;2023-02-01T13:44:30;5.87;;;2.10;;
1721;SDS011;858;53.190;8.596;2023-02-01T13:46:59;11.17;;;4.80;;
1721;SDS011;858;53.190;8.596;2023-02-01T13:49:27;13.07;;;5.37;;
1721;SDS011;858;53.190;8.596;2023-02-01T13:51:55;6.57;;;2.43;;
1721;SDS011;858;53.190;8.596;2023-02-01T13:54:23;6.50;;;2.90;;
1721;SDS011;858;53.190;8.596;2023-02-01T13:56:51;8.57;;;3.00;;
1721;SDS011;858;53.190;8.596;2023-02-01T14:05:06;11.87;;;7.90;;
1721;SDS011;858;53.190;8.596;2023-02-01T14:07:34;21.73;;;5.70;;
1721;SDS011;858;53.190;8.596;2023-02-01T14:12:43;19.00;;;6.40;;
1721;SDS011;858;53.190;8.596;2023-02-01T14:15:20;14.20;;;8.30;;
1721;SDS011;858;53.190;8.596;2023-02-01T14:17:48;20.27;;;7.80;;
1721;SDS011;858;53.190;8.596;2023-02-01T14:23:22;16.10;;;5.80;;
1721;SDS011;858;53.190;8.596;2023-02-01T14:28:32;17.30;;;5.73;;
1721;SDS011;858;53.190;8.596;2023-02-01T14:31:06;20.00;;;5.37;;
1721;SDS011;858;53.190;8.596;2023-02-01T14:33:40;15.63;;;5.07;;
1721;SDS011;858;53.190;8.596;2023-02-01T14:36:08;13.27;;;5.67;;
1721;SDS011;858;53.190;8.596;2023-02-01T14:38:37;24.20;;;4.73;;
1721;SDS011;858;53.190;8.596;2023-02-01T14:41:12;14.67;;;5.00;;
1721;SDS011;858;53.190;8.596;2023-02-01T14:43:50;17.87;;;4.63;;
1721;SDS011;858;53.190;8.596;2023-02-01T14:46:17;15.57;;;4.43;;
1721;SDS011;858;53.190;8.596;2023-02-01T14:48:45;22.90;;;6.27;;
1721;SDS011;858;53.190;8.596;2023-02-01T14:51:13;26.17;;;5.73;;
1721;SDS011;858;53.190;8.596;2023-02-01T14:53:41;29.17;;;4.50;;
1721;SDS011;858;53.190;8.596;2023-02-01T14:56:11;16.17;;;4.50;;
1721;SDS011;858;53.190;8.596;2023-02-01T14:58:40;19.80;;;6.30;;
1721;SDS011;858;53.190;8.596;2023-02-01T15:01:13;20.10;;;4.67;;
1721;SDS011;858;53.190;8.596;2023-02-01T15:03:43;15.23;;;4.10;;
1721;SDS011;858;53.190;8.596;2023-02-01T15:06:20;21.37;;;5.33;;
1721;SDS011;858;53.190;8.596;2023-02-01T15:08:51;20.27;;;5.93;;
1721;SDS011;858;53.190;8.596;2023-02-01T15:11:19;29.87;;;5.73;;
1721;SDS011;858;53.190;8.596;2023-02-01T15:13:48;20.17;;;5.63;;
1721;SDS011;858;53.190;8.596;2023-02-01T15:16:15;21.10;;;5.67;;
1721;SDS011;858;53.190;8.596;2023-02-01T15:18:42;22.83;;;4.93;;
1721;SDS011;858;53.190;8.596;2023-02-01T15:21:15;22.70;;;5.73;;
1721;SDS011;858;53.190;8.596;2023-02-01T15:23:41;29.93;;;6.30;;
1721;SDS011;858;53.190;8.596;2023-02-01T15:26:09;23.80;;;7.00;;
1721;SDS011;858;53.190;8.596;2023-02-01T15:28:36;19.33;;;4.00;;
1721;SDS011;858;53.190;8.596;2023-02-01T15:31:03;21.07;;;4.83;;
1721;SDS011;858;53.190;8.596;2023-02-01T15:33:30;23.50;;;5.00;;
1721;SDS011;858;53.190;8.596;2023-02-01T15:36:06;23.87;;;5.87;;
1721;SDS011;858;53.190;8.596;2023-02-01T15:38:35;25.40;;;4.20;;
1721;SDS011;858;53.190;8.596;2023-02-01T15:41:05;20.03;;;4.90;;
1721;SDS011;858;53.190;8.596;2023-02-01T15:43:35;27.87;;;6.60;;
1721;SDS011;858;53.190;8.596;2023-02-01T15:46:03;27.47;;;7.27;;
1721;SDS011;858;53.190;8.596;2023-02-01T15:48:34;21.90;;;6.47;;
1721;SDS011;858;53.190;8.596;2023-02-01T15:51:01;13.73;;;4.60;;
1721;SDS011;858;53.190;8.596;2023-02-01T15:53:27;11.37;;;4.30;;
1721;SDS011;858;53.190;8.596;2023-02-01T15:55:57;17.13;;;4.17;;